createdAt,value
2018-01-31T02:01:02.767Z,9.53
2018-01-31T02:02:38.413Z,9.59
2018-01-31T02:03:22.829Z,9.59
2018-01-31T02:04:05.998Z,9.63
2018-01-31T02:04:46.459Z,9.71
2018-01-31T02:05:26.743Z,9.7
2018-01-31T02:06:07.226Z,9.67
2018-01-31T02:07:31.478Z,9.8
2018-01-31T02:08:13.448Z,9.77
2018-01-31T02:08:53.693Z,9.75
2018-01-31T02:09:34.099Z,9.92
2018-01-31T02:10:22.284Z,9.83
2018-01-31T02:11:09.462Z,9.83
2018-01-31T02:15:15.009Z,9.95
2018-01-31T02:17:54.781Z,9.99
2018-01-31T02:18:38.821Z,9.89
2018-01-31T02:19:19.625Z,9.92
2018-01-31T02:20:02.983Z,9.96
2018-01-31T02:20:45.718Z,10.02
2018-01-31T02:21:26.013Z,9.98
2018-01-31T02:22:06.644Z,9.93
2018-01-31T02:22:48.022Z,10.02
2018-01-31T02:23:31.208Z,10.06
2018-01-31T02:24:12.162Z,10.06
2018-01-31T02:24:52.643Z,9.99
2018-01-31T02:25:33.085Z,10.02
2018-01-31T02:26:13.596Z,9.99
2018-01-31T02:26:54.116Z,9.95
2018-01-31T02:42:02.194Z,10.54
2018-01-31T02:42:53.538Z,10.58
2018-01-31T02:43:47.629Z,10.68
2018-01-31T02:44:29.484Z,10.69
2018-01-31T02:45:09.814Z,10.63
2018-01-31T02:45:51.652Z,10.66
2018-01-31T02:46:32.202Z,10.58
2018-01-31T02:51:52.191Z,10.95
2018-01-31T02:54:53.786Z,10.83
2018-01-31T02:57:33.323Z,11.06
2018-01-31T03:06:06.429Z,11.12
2018-01-31T03:09:39.163Z,11.24
2018-01-31T03:11:22.882Z,11.35
2018-01-31T03:13:53.723Z,11.33
2018-01-31T03:15:50.756Z,11.46
2018-01-31T03:17:47.657Z,11.53
2018-01-31T03:18:37.988Z,11.56
2018-01-31T03:19:16.388Z,11.64
2018-01-31T03:19:57.650Z,11.56
2018-01-31T03:20:38.607Z,11.53
2018-01-31T03:21:21.707Z,11.57
2018-01-31T03:22:02.083Z,11.53
2018-01-31T03:22:42.776Z,11.53
2018-01-31T03:23:23.181Z,11.46
2018-01-31T03:24:05.462Z,11.57
2018-01-31T03:24:46.538Z,11.41
2018-01-31T03:26:46.587Z,11.59
2018-01-31T03:28:55.521Z,11.56
2018-01-31T03:31:38.769Z,11.44
2018-01-31T03:34:55.091Z,11.38
2018-01-31T03:37:03.700Z,11.6
2018-01-31T03:38:01.254Z,11.56
2018-01-31T03:40:40.506Z,11.63
2018-01-31T03:47:30.984Z,11.45
2018-01-31T03:48:12.100Z,11.38
2018-01-31T03:48:52.888Z,11.36
2018-01-31T03:49:33.571Z,11.35
2018-01-31T03:50:14.086Z,11.3
2018-01-31T03:50:54.641Z,11.19
2018-01-31T03:51:40.140Z,11.2
2018-01-31T03:52:21.124Z,11.2
2018-01-31T03:53:01.668Z,11.16
2018-01-31T03:53:42.062Z,11.2
2018-01-31T03:54:22.497Z,11.23
2018-01-31T03:55:02.909Z,11.21
2018-01-31T03:55:51.122Z,11.3
2018-01-31T03:56:32.377Z,11.42
2018-01-31T03:57:12.844Z,11.53
2018-01-31T03:57:53.326Z,11.48
2018-01-31T03:58:33.804Z,11.38
2018-01-31T03:59:14.303Z,11.39
2018-01-31T04:00:00.312Z,11.38
2018-01-31T04:00:48.255Z,11.41
2018-01-31T04:01:24.767Z,11.26
2018-01-31T04:02:05.504Z,11.26
2018-01-31T04:02:47.088Z,11.26
2018-01-31T04:03:27.922Z,11.2
2018-01-31T04:46:57.709Z,9.8
2018-01-31T04:48:35.876Z,9.91
2018-01-31T04:49:16.639Z,9.81
2018-01-31T04:49:57.028Z,9.88
2018-01-31T04:53:00.368Z,9.98
2018-01-31T04:55:20.673Z,10.14
2018-01-31T04:56:10.407Z,10.17
2018-01-31T04:56:48.852Z,10.17
2018-01-31T04:57:29.455Z,10.22
2018-01-31T05:00:11.345Z,10.29
2018-01-31T05:03:49.382Z,10.73
2018-01-31T05:04:31.976Z,10.75
2018-01-31T05:06:26.189Z,10.83
2018-01-31T05:12:42.540Z,10.86
2018-01-31T05:14:22.617Z,10.87
2018-01-31T05:16:03.007Z,10.94
2018-01-31T06:30:05.504Z,11.36
2018-01-31T06:30:58.237Z,11.3
2018-01-31T06:31:53.414Z,11.41
2018-01-31T06:32:47.113Z,11.38
2018-01-31T06:34:59.381Z,11.36
2018-01-31T06:35:54.220Z,11.33
2018-01-31T06:36:40.881Z,11.31
2018-01-31T06:37:28.733Z,11.17
2018-01-31T06:38:09.258Z,11.19
2018-01-31T06:38:49.546Z,11.11
2018-01-31T06:39:29.957Z,11.19
2018-01-31T06:40:10.432Z,11.11
2018-01-31T06:40:50.886Z,11.12
2018-01-31T06:41:31.294Z,11.09
2018-01-31T06:42:11.767Z,11.08
2018-01-31T06:42:52.146Z,11.12
2018-01-31T06:43:32.570Z,11.12
2018-01-31T06:44:12.978Z,11.19
2018-01-31T06:44:53.557Z,11.2
2018-01-31T06:45:38.107Z,11.17
2018-01-31T06:50:02.519Z,11.05
2018-01-31T06:50:59.775Z,11.09
2018-01-31T06:51:56.240Z,10.94
2018-01-31T06:52:53.779Z,11.11
2018-01-31T06:53:48.402Z,11.09
2018-01-31T06:54:41.756Z,11.21
2018-01-31T06:55:38.317Z,11.23
2018-01-31T06:56:35.003Z,11.3
2018-01-31T06:57:28.616Z,11.36
2018-01-31T06:58:24.028Z,11.45
2018-01-31T06:59:16.713Z,11.56
2018-01-31T07:00:14.523Z,11.48
2018-01-31T07:01:09.542Z,11.64
2018-01-31T07:02:03.155Z,11.59
2018-01-31T07:02:56.407Z,11.69
2018-01-31T07:03:52.449Z,11.74
2018-01-31T07:05:44.063Z,11.7
2018-01-31T07:07:27.344Z,11.81
2018-01-31T07:08:22.909Z,11.77
2018-01-31T07:09:08.480Z,11.74
2018-01-31T07:09:50.089Z,11.79
2018-01-31T07:10:31.179Z,11.63
2018-01-31T07:11:12.373Z,11.69
2018-01-31T07:11:53.015Z,11.74
2018-01-31T07:12:33.559Z,11.66
2018-01-31T07:13:14.339Z,11.64
2018-01-31T07:13:55.440Z,11.6
2018-01-31T07:14:36.692Z,11.63
2018-01-31T07:15:17.588Z,11.51
2018-01-31T07:17:03.741Z,11.66
2018-01-31T07:18:36.440Z,11.98
2018-01-31T07:20:19.712Z,12.04
2018-01-31T07:21:00.378Z,12.08
2018-01-31T07:21:40.819Z,11.98
2018-01-31T07:22:22.326Z,11.87
2018-01-31T07:23:02.818Z,11.78
2018-01-31T07:23:43.278Z,11.66
2018-01-31T07:24:29.880Z,11.62
2018-01-31T07:25:10.339Z,11.63
2018-01-31T07:25:52.015Z,11.49
2018-01-31T07:26:33.077Z,11.54
2018-01-31T07:27:13.808Z,11.57
2018-01-31T07:27:55.412Z,11.42
2018-01-31T07:28:42.645Z,11.53
2018-01-31T07:29:26.671Z,11.48
2018-01-31T07:30:08.716Z,11.63
2018-01-31T07:30:53.618Z,11.48
2018-01-31T07:31:36.400Z,11.48
2018-01-31T07:32:16.809Z,11.57
2018-01-31T07:32:57.733Z,11.46
2018-01-31T07:33:39.227Z,11.51
2018-01-31T07:34:20.802Z,11.45
2018-01-31T07:35:00.357Z,11.39
2018-01-31T07:35:40.739Z,11.27
2018-01-31T07:36:22.558Z,11.26
2018-01-31T07:37:03.323Z,11.2
2018-01-31T07:37:47.333Z,11.13
2018-01-31T07:39:45.403Z,11.49
2018-01-31T07:42:58.329Z,11.75
2018-01-31T07:43:52.306Z,11.84
2018-01-31T07:44:44.111Z,11.82
2018-01-31T07:45:25.249Z,11.85
2018-01-31T07:46:38.933Z,11.79
2018-01-31T08:01:59.921Z,11.44
2018-01-31T08:29:55.339Z,11.21
2018-01-31T08:33:49.372Z,11.35
2018-01-31T08:35:28.238Z,11.62
2018-01-31T08:39:42.619Z,12.01
2018-01-31T08:42:19.932Z,11.87
2018-01-31T08:43:18.183Z,12.01
2018-01-31T08:44:04.654Z,11.98
2018-01-31T08:44:45.828Z,11.94
2018-01-31T08:48:28.335Z,11.98
2018-01-31T08:49:22.092Z,12.03
2018-01-31T08:50:02.193Z,11.96
2018-01-31T08:50:45.271Z,11.97
2018-01-31T08:51:27.768Z,11.96
2018-01-31T08:52:08.614Z,12.07
2018-01-31T08:55:09.150Z,12.16
2018-01-31T08:55:50.203Z,12
2018-01-31T08:56:31.611Z,11.88
2018-01-31T08:57:14.425Z,11.79
2018-01-31T08:57:56.666Z,11.77
2018-01-31T08:58:37.280Z,11.7
2018-01-31T08:59:17.734Z,11.74
2018-01-31T08:59:59.000Z,11.74
2018-01-31T09:05:54.020Z,12.05
2018-01-31T09:11:11.722Z,12.05
2018-01-31T09:11:54.240Z,12.04
2018-01-31T09:12:35.246Z,12.15
2018-01-31T09:13:15.652Z,12.16
2018-01-31T09:13:57.262Z,12.3
2018-01-31T09:14:39.564Z,12.36
2018-01-31T09:15:21.652Z,12.36
2018-01-31T09:16:02.747Z,12.23
2018-01-31T09:16:44.196Z,12.23
2018-01-31T09:17:25.998Z,12.15
2018-01-31T09:18:09.544Z,12.16
2018-01-31T09:18:53.412Z,12.13
2018-01-31T09:19:34.128Z,12.12
2018-01-31T09:20:15.679Z,12.03
2018-01-31T09:20:57.595Z,11.96
2018-01-31T09:21:40.772Z,11.93
2018-01-31T09:22:21.215Z,12.07
2018-01-31T09:23:03.239Z,12.01
2018-01-31T09:23:47.757Z,11.94
2018-01-31T09:24:28.609Z,11.97
2018-01-31T09:25:09.641Z,11.93
2018-01-31T09:25:50.226Z,11.85
2018-01-31T09:26:31.001Z,11.79
2018-01-31T09:27:13.730Z,11.93
2018-01-31T09:27:56.211Z,11.87
2018-01-31T09:28:41.407Z,11.94
2018-01-31T09:29:23.733Z,11.98
2018-01-31T09:30:04.298Z,11.93
2018-01-31T09:30:45.928Z,11.94
2018-01-31T09:31:26.716Z,11.87
2018-01-31T09:32:08.165Z,11.88
2018-01-31T09:32:50.452Z,11.9
2018-01-31T09:33:31.444Z,11.85
2018-01-31T09:34:15.900Z,12
2018-01-31T09:34:58.506Z,12.01
2018-01-31T09:35:38.894Z,12
2018-01-31T09:36:19.384Z,12.07
2018-01-31T09:37:00.025Z,12.11
2018-01-31T09:37:43.406Z,12.08
2018-01-31T09:38:24.049Z,12.08
2018-01-31T09:39:07.995Z,12.08
2018-01-31T09:39:47.902Z,12.11
2018-01-31T09:40:29.325Z,12.05
2018-01-31T09:41:10.078Z,12.01
2018-01-31T09:41:50.548Z,12
2018-01-31T09:42:31.741Z,11.9
2018-01-31T09:43:12.743Z,11.93
2018-01-31T09:43:54.302Z,11.97
2018-01-31T09:44:34.804Z,12.07
2018-01-31T09:45:15.993Z,12.11
2018-01-31T09:45:56.858Z,12
2018-01-31T09:46:37.221Z,12.05
2018-01-31T09:47:18.006Z,11.96
2018-01-31T09:47:58.444Z,11.87
2018-01-31T09:48:40.450Z,11.93
2018-01-31T09:49:22.105Z,11.96
2018-01-31T09:50:02.654Z,11.81
2018-01-31T09:50:43.116Z,11.88
2018-01-31T09:51:27.441Z,11.85
2018-01-31T09:52:08.085Z,11.77
2018-01-31T09:52:49.754Z,11.69
2018-01-31T09:53:35.021Z,11.7
2018-01-31T09:54:15.864Z,11.74
2018-01-31T09:54:56.631Z,11.75
2018-01-31T09:55:36.988Z,11.64
2018-01-31T09:56:17.842Z,11.66
2018-01-31T09:57:01.279Z,11.64
2018-01-31T09:57:41.357Z,11.72
2018-01-31T09:58:22.008Z,11.93
2018-01-31T09:59:03.775Z,11.98
2018-01-31T09:59:44.891Z,12.01
2018-01-31T10:00:26.304Z,11.96
2018-01-31T10:01:07.108Z,12
2018-01-31T10:01:47.928Z,11.94
2018-01-31T10:02:28.975Z,11.97
2018-01-31T10:03:10.037Z,12.07
2018-01-31T10:03:50.894Z,12.12
2018-01-31T10:04:31.614Z,12.21
2018-01-31T10:42:23.272Z,11.81
2018-01-31T10:44:34.425Z,11.85
2018-01-31T10:45:16.143Z,11.78
2018-01-31T10:46:00.160Z,11.69
2018-01-31T10:46:49.080Z,11.75
2018-01-31T10:48:32.504Z,11.96
2018-01-31T10:49:30.900Z,11.82
2018-01-31T10:50:39.177Z,11.78
2018-01-31T10:51:47.375Z,11.72
2018-01-31T10:52:50.540Z,11.79
2018-01-31T10:57:29.932Z,12.05
2018-01-31T10:58:10.661Z,12.05
2018-01-31T10:58:50.891Z,11.98
2018-01-31T11:03:18.149Z,11.94
2018-01-31T11:04:16.022Z,12.08
2018-01-31T11:05:15.565Z,12.12
2018-01-31T11:06:15.059Z,12.12
2018-01-31T11:07:09.254Z,12.11
2018-01-31T11:08:05.319Z,12.11
2018-01-31T11:09:08.044Z,12.16
2018-01-31T11:10:05.449Z,12.12
2018-01-31T11:11:05.883Z,12.15
2018-01-31T11:12:01.527Z,12.16
2018-01-31T11:16:57.600Z,12.29
2018-01-31T11:17:52.727Z,12.3
2018-01-31T11:18:51.805Z,12.15
2018-01-31T11:19:49.763Z,12.25
2018-01-31T11:20:49.964Z,12.13
2018-01-31T11:21:50.837Z,12.04
2018-01-31T11:22:47.873Z,12.05
2018-01-31T11:23:41.643Z,12.12
2018-01-31T11:24:39.542Z,12.15
2018-01-31T11:25:34.308Z,12.15
2018-01-31T11:26:29.266Z,12.11
2018-01-31T11:28:26.031Z,11.9
2018-01-31T11:29:22.716Z,11.94
2018-01-31T11:30:18.635Z,11.93
2018-01-31T11:31:13.643Z,12
2018-01-31T11:32:08.904Z,12.07
2018-01-31T11:33:03.144Z,12.18
2018-01-31T11:34:01.514Z,12.19
2018-01-31T11:35:00.267Z,12.34
2018-01-31T11:36:05.880Z,12.31
2018-01-31T11:37:07.639Z,12.29
2018-01-31T11:45:17.557Z,12.38
2018-01-31T11:45:58.825Z,12.49
2018-01-31T11:46:39.248Z,12.43
2018-01-31T11:47:20.831Z,12.33
2018-01-31T11:48:02.721Z,12.33
2018-01-31T11:48:42.866Z,12.36
2018-01-31T11:49:23.159Z,12.31
2018-01-31T11:50:03.682Z,12.3
2018-01-31T11:50:44.895Z,12.33
2018-01-31T11:51:25.310Z,12.4
2018-01-31T11:52:06.513Z,12.4
2018-01-31T11:52:46.954Z,12.43
2018-01-31T11:53:27.856Z,12.48
2018-01-31T11:54:08.675Z,12.44
2018-01-31T11:54:49.495Z,12.46
2018-01-31T11:55:31.788Z,12.41
2018-01-31T11:56:12.540Z,12.44
2018-01-31T11:56:53.371Z,12.4
2018-01-31T11:57:34.595Z,12.36
2018-01-31T11:58:17.320Z,12.37
2018-01-31T11:58:58.758Z,12.48
2018-01-31T11:59:39.013Z,12.43
2018-01-31T12:00:20.567Z,12.49
2018-01-31T12:01:01.279Z,12.46
2018-01-31T12:01:46.350Z,12.59
2018-01-31T12:02:26.308Z,12.55
2018-01-31T12:03:09.240Z,12.56
2018-01-31T12:03:50.151Z,12.46
2018-01-31T12:04:31.085Z,12.51
2018-01-31T12:05:11.554Z,12.46
2018-01-31T12:05:53.612Z,12.44
2018-01-31T12:06:34.901Z,12.49
2018-01-31T12:07:16.177Z,12.49
2018-01-31T12:07:56.713Z,12.48
2018-01-31T12:08:37.217Z,12.52
2018-01-31T12:09:18.389Z,12.54
2018-01-31T12:09:58.919Z,12.56
2018-01-31T12:10:40.051Z,12.77
2018-01-31T12:11:21.201Z,12.8
2018-01-31T12:12:02.684Z,12.74
2018-01-31T12:12:42.685Z,12.77
2018-01-31T12:13:23.342Z,12.84
2018-01-31T12:14:04.024Z,12.81
2018-01-31T12:14:44.419Z,12.99
2018-01-31T12:15:25.442Z,12.96
2018-01-31T12:16:06.291Z,12.81
2018-01-31T12:16:48.715Z,12.77
2018-01-31T12:17:29.278Z,12.79
2018-01-31T12:18:09.652Z,12.77
2018-01-31T12:20:00.011Z,12.81
2018-01-31T12:24:42.977Z,12.79
2018-01-31T12:28:45.331Z,12.84
2018-01-31T12:29:25.893Z,12.79
2018-01-31T12:30:06.587Z,12.74
2018-01-31T12:30:47.879Z,12.92
2018-01-31T12:31:28.309Z,12.91
2018-01-31T12:32:09.554Z,12.96
2018-01-31T12:32:50.874Z,12.89
2018-01-31T12:33:31.984Z,12.94
2018-01-31T12:34:12.760Z,12.87
2018-01-31T12:34:53.129Z,12.88
2018-01-31T12:35:33.924Z,12.84
2018-01-31T12:36:14.551Z,12.91
2018-01-31T12:36:55.731Z,12.89
2018-01-31T12:37:36.634Z,12.92
2018-01-31T12:38:17.405Z,12.77
2018-01-31T12:38:59.884Z,12.77
2018-01-31T12:39:40.251Z,12.81
2018-01-31T12:40:22.517Z,12.77
2018-01-31T12:41:04.419Z,12.8
2018-01-31T12:41:44.467Z,12.76
2018-01-31T12:42:26.381Z,12.91
2018-01-31T12:43:06.569Z,12.88
2018-01-31T12:43:48.309Z,12.95
2018-01-31T12:44:29.200Z,12.98
2018-01-31T12:45:10.571Z,12.98
2018-01-31T12:45:54.380Z,13.03
2018-01-31T12:46:38.107Z,13.07
2018-01-31T12:47:19.687Z,12.95
2018-01-31T12:48:02.077Z,12.98
2018-01-31T12:48:43.825Z,12.98
2018-01-31T12:49:24.789Z,13.06
2018-01-31T12:50:05.788Z,13.03
2018-01-31T12:50:50.398Z,13.06
2018-01-31T12:51:31.034Z,13.04
2018-01-31T12:52:14.387Z,13.17
2018-01-31T12:52:55.233Z,13.27
2018-01-31T12:53:37.333Z,13.16
2018-01-31T12:54:19.057Z,13.25
2018-01-31T12:55:00.226Z,13.19
2018-01-31T12:55:41.272Z,13.19
2018-01-31T12:56:23.188Z,13.16
2018-01-31T12:57:03.676Z,13.14
2018-01-31T12:57:44.423Z,13.12
2018-01-31T12:58:25.518Z,13.1
2018-01-31T12:59:06.891Z,12.98
2018-01-31T12:59:47.577Z,13.01
2018-01-31T13:00:29.284Z,13.01
2018-01-31T13:01:10.660Z,12.94
2018-01-31T13:01:51.375Z,12.81
2018-01-31T13:02:31.766Z,12.94
2018-01-31T13:03:12.933Z,12.79
2018-01-31T13:03:53.886Z,12.84
2018-01-31T13:04:35.070Z,12.99
2018-01-31T13:05:15.893Z,12.98
2018-01-31T13:05:59.257Z,12.94
2018-01-31T13:06:40.528Z,12.96
2018-01-31T13:07:23.326Z,12.99
2018-01-31T13:08:05.919Z,12.95
2018-01-31T13:08:48.759Z,12.98
2018-01-31T13:09:31.725Z,12.98
2018-01-31T13:10:13.178Z,12.87
2018-01-31T13:10:54.309Z,12.92
2018-01-31T13:12:57.576Z,12.89
2018-01-31T13:16:47.136Z,12.79
2018-01-31T13:18:51.904Z,12.71
2018-01-31T13:22:40.663Z,12.59
2018-01-31T13:26:35.798Z,12.44
2018-01-31T13:27:16.410Z,12.52
2018-01-31T13:27:57.981Z,12.37
2018-01-31T13:28:39.597Z,12.43
2018-01-31T13:29:20.483Z,12.41
2018-01-31T13:30:10.279Z,12.43
2018-01-31T13:36:29.600Z,12.33
2018-01-31T13:37:14.201Z,12.29
2018-01-31T13:37:54.623Z,12.3
2018-01-31T13:38:35.120Z,12.3
2018-01-31T13:39:15.994Z,12.22
2018-01-31T13:39:56.402Z,12.23
2018-01-31T13:40:37.040Z,12.13
2018-01-31T13:41:17.449Z,12.16
2018-01-31T13:41:59.438Z,12.18
2018-01-31T13:42:40.078Z,12.19
2018-01-31T13:43:20.886Z,12.13
2018-01-31T13:44:02.124Z,12.16
2018-01-31T13:44:42.811Z,12.16
2018-01-31T13:45:22.630Z,12.03
2018-01-31T13:46:03.936Z,12.04
2018-01-31T13:46:44.868Z,12.07
2018-01-31T13:47:26.242Z,12.13
2018-01-31T13:48:06.770Z,12.11
2018-01-31T13:48:47.284Z,12.13
2018-01-31T13:49:28.135Z,12.16
2018-01-31T13:50:09.341Z,12.04
2018-01-31T13:50:50.500Z,12.13
2018-01-31T13:51:30.863Z,12.18
2018-01-31T13:52:11.528Z,12.16
2018-01-31T13:52:52.416Z,12.13
2018-01-31T13:53:33.009Z,12.16
2018-01-31T13:54:13.414Z,12.19
2018-01-31T13:54:53.977Z,12.04
2018-01-31T13:55:34.589Z,12.07
2018-01-31T13:56:14.993Z,12.13
2018-01-31T13:56:57.451Z,12.12
2018-01-31T13:57:37.892Z,11.97
2018-01-31T13:58:18.732Z,11.93
2018-01-31T13:58:59.205Z,11.94
2018-01-31T14:09:48.053Z,11.59
2018-01-31T14:10:29.228Z,11.57
2018-01-31T14:11:10.432Z,11.51
2018-01-31T14:11:51.409Z,11.53
2018-01-31T14:12:32.389Z,11.62
2018-01-31T14:13:13.305Z,11.57
2018-01-31T14:13:54.053Z,11.53
2018-01-31T14:14:35.349Z,11.51
2018-01-31T14:15:16.552Z,11.54
2018-01-31T14:15:57.161Z,11.54
2018-01-31T14:16:38.137Z,11.42
2018-01-31T14:17:18.479Z,11.3
2018-01-31T14:17:59.010Z,11.33
2018-01-31T14:18:39.423Z,11.35
2018-01-31T14:19:20.945Z,11.3
2018-01-31T14:20:01.320Z,11.35
2018-01-31T14:20:41.984Z,11.35
2018-01-31T14:21:22.201Z,11.24
2018-01-31T14:22:02.610Z,11.21
2018-01-31T14:22:43.074Z,11.19
2018-01-31T14:23:23.619Z,11.16
2018-01-31T14:24:04.359Z,11.2
2018-01-31T14:24:44.978Z,11.21
2018-01-31T14:25:26.087Z,11.28
2018-01-31T14:26:06.687Z,11.3
2018-01-31T14:26:47.718Z,11.17
2018-01-31T14:27:28.447Z,11.2
2018-01-31T14:28:08.988Z,11.21
2018-01-31T14:28:49.360Z,11.17
2018-01-31T14:29:30.087Z,11.19
2018-01-31T14:30:10.509Z,11.16
2018-01-31T14:30:51.338Z,11.13
2018-01-31T14:31:31.953Z,11.19
2018-01-31T14:32:12.964Z,11.09
2018-01-31T14:32:53.792Z,11.06
2018-01-31T14:33:34.756Z,11.23
2018-01-31T14:34:15.685Z,11.17
2018-01-31T14:34:56.084Z,11.23
2018-01-31T14:35:36.722Z,11.17
2018-01-31T14:36:17.486Z,11.13
2018-01-31T14:36:58.366Z,11.12
2018-01-31T14:37:39.728Z,11.02
2018-01-31T14:38:21.450Z,11.11
2018-01-31T14:39:03.232Z,10.98
2018-01-31T14:39:45.035Z,10.87
2018-01-31T14:40:25.800Z,10.9
2018-01-31T14:41:06.325Z,10.83
2018-01-31T14:41:47.608Z,10.86
2018-01-31T14:42:27.663Z,10.73
2018-01-31T14:43:09.291Z,10.76
2018-01-31T14:43:49.987Z,10.72
2018-01-31T14:44:30.099Z,10.7
2018-01-31T14:45:10.817Z,10.7
2018-01-31T14:45:51.715Z,10.72
2018-01-31T14:46:32.232Z,10.75
2018-01-31T14:47:12.807Z,10.83
2018-01-31T14:47:53.585Z,10.68
2018-01-31T14:48:34.793Z,10.75
2018-01-31T14:49:15.313Z,10.75
2018-01-31T14:49:57.228Z,10.73
2018-01-31T14:50:37.959Z,10.88
2018-01-31T14:51:18.629Z,10.86
2018-01-31T14:51:59.462Z,10.7
2018-01-31T14:52:40.010Z,10.69
2018-01-31T14:53:20.474Z,10.72
2018-01-31T14:54:02.135Z,10.7
2018-01-31T14:54:43.940Z,10.69
2018-01-31T14:55:28.554Z,10.88
2018-01-31T14:56:13.087Z,10.99
2018-01-31T14:56:54.554Z,10.99
2018-01-31T14:57:35.362Z,11.03
2018-01-31T14:58:19.171Z,11.06
2018-01-31T14:59:00.043Z,11.05
2018-01-31T14:59:42.428Z,10.99
2018-01-31T15:00:22.903Z,10.95
2018-01-31T15:01:04.286Z,10.99
2018-01-31T15:01:44.728Z,11.06
2018-01-31T15:02:26.565Z,10.86
2018-01-31T15:03:08.820Z,11.01
2018-01-31T15:03:49.331Z,10.98
2018-01-31T15:04:30.300Z,11.08
2018-01-31T15:05:10.916Z,10.95
2018-01-31T15:05:52.721Z,10.95
2018-01-31T15:06:35.535Z,10.94
2018-01-31T15:07:16.522Z,10.94
2018-01-31T15:07:58.318Z,10.81
2018-01-31T15:08:39.345Z,10.7
2018-01-31T15:09:20.458Z,10.73
2018-01-31T15:10:01.793Z,10.86
2018-01-31T15:10:42.656Z,10.88
2018-01-31T15:11:23.401Z,10.73
2018-01-31T15:12:03.714Z,10.7
2018-01-31T15:12:44.063Z,10.69
2018-01-31T15:13:25.227Z,10.69
2018-01-31T15:14:06.254Z,10.73
2018-01-31T15:14:47.061Z,10.78
2018-01-31T15:15:28.239Z,10.76
2018-01-31T15:16:09.603Z,10.76
2018-01-31T15:16:50.251Z,10.69
2018-01-31T15:17:31.598Z,10.66
2018-01-31T15:18:12.215Z,10.54
2018-01-31T15:18:53.544Z,10.68
2018-01-31T15:19:34.908Z,10.6
2018-01-31T15:20:15.860Z,10.46
2018-01-31T15:20:56.545Z,10.35
2018-01-31T15:21:38.339Z,10.35
2018-01-31T15:22:19.340Z,10.29
2018-01-31T15:22:59.968Z,10.32
2018-01-31T15:23:40.848Z,10.34
2018-01-31T15:24:22.159Z,10.39
2018-01-31T15:25:03.474Z,10.44
2018-01-31T15:25:44.708Z,10.42
2018-01-31T15:26:25.496Z,10.34
2018-01-31T15:27:06.255Z,10.31
2018-01-31T15:27:47.331Z,10.36
2018-01-31T15:28:28.228Z,10.32
2018-01-31T15:29:09.452Z,10.32
2018-01-31T15:29:50.513Z,10.46
2018-01-31T15:30:31.235Z,10.46
2018-01-31T15:31:11.938Z,10.42
2018-01-31T15:31:52.678Z,10.36
2018-01-31T15:32:33.501Z,10.32
2018-01-31T15:33:14.235Z,10.32
2018-01-31T15:35:09.907Z,10.29
2018-01-31T15:36:00.346Z,10.26
2018-01-31T15:36:42.234Z,10.36
2018-01-31T15:37:22.947Z,10.39
2018-01-31T15:38:05.638Z,10.35
2018-01-31T15:38:45.764Z,10.28
2018-01-31T15:39:26.609Z,10.17
2018-01-31T15:40:09.389Z,10.07
2018-01-31T15:40:50.279Z,10.01
2018-01-31T15:41:31.162Z,9.96
2018-01-31T15:42:12.610Z,10.02
2018-01-31T15:42:53.212Z,9.93
2018-01-31T15:43:33.672Z,10.01
2018-01-31T15:48:39.590Z,9.75
2018-01-31T15:50:35.445Z,9.75
2018-01-31T15:51:19.964Z,9.68
2018-01-31T15:52:00.842Z,9.77
2018-01-31T15:52:41.180Z,9.77
2018-01-31T15:53:21.506Z,9.81
2018-01-31T15:54:02.245Z,9.8
2018-01-31T15:54:43.677Z,9.83
2018-01-31T15:55:24.419Z,9.78
2018-01-31T15:56:04.824Z,9.77
2018-01-31T15:56:45.351Z,9.91
2018-01-31T15:57:26.976Z,9.98
2018-01-31T15:58:07.317Z,9.92
2018-01-31T15:58:47.641Z,9.88
2018-01-31T15:59:28.190Z,9.91
2018-01-31T16:00:09.241Z,9.83
2018-01-31T16:01:49.632Z,9.83
2018-01-31T16:02:33.786Z,9.83
2018-01-31T16:03:14.969Z,9.81
2018-01-31T16:03:55.619Z,9.73
2018-01-31T16:43:13.682Z,8.27
2018-01-31T16:48:00.108Z,8.4
2018-01-31T16:49:33.556Z,8.39
2018-01-31T16:50:15.376Z,8.39
2018-01-31T16:50:57.176Z,8.49
2018-01-31T16:51:38.702Z,8.52
2018-01-31T16:52:19.579Z,8.4
2018-01-31T16:53:02.625Z,8.42
2018-01-31T16:53:44.749Z,8.36
2018-01-31T16:54:26.992Z,8.34
2018-01-31T16:55:08.549Z,8.39
2018-01-31T16:55:49.236Z,8.43
2018-01-31T16:56:30.147Z,8.52
2018-01-31T16:57:11.767Z,8.54
2018-01-31T16:57:53.825Z,8.57
2018-01-31T16:58:33.896Z,8.42
2018-01-31T16:59:14.423Z,8.37
2018-01-31T16:59:55.143Z,8.43
2018-01-31T17:00:35.576Z,8.32
2018-01-31T17:01:16.917Z,8.31
2018-01-31T17:01:57.776Z,8.2
2018-01-31T17:03:58.406Z,8.09
2018-01-31T17:04:39.573Z,7.89
2018-01-31T17:05:20.824Z,8.03
2018-01-31T17:06:00.640Z,8
2018-01-31T17:06:41.436Z,8.07
2018-01-31T17:07:22.211Z,7.88
2018-01-31T17:08:02.711Z,7.99
2018-01-31T17:10:56.769Z,7.69
2018-01-31T17:11:45.979Z,7.58
2018-01-31T17:12:29.201Z,7.58
2018-01-31T17:13:12.521Z,7.63
2018-01-31T17:13:53.529Z,7.63
2018-01-31T17:25:05.707Z,7.86
2018-01-31T17:25:56.656Z,7.69
2018-01-31T17:26:38.042Z,7.81
2018-01-31T17:27:18.224Z,7.67
2018-01-31T17:27:58.612Z,7.69
2018-01-31T17:28:40.030Z,7.66
2018-01-31T17:29:20.367Z,7.71
2018-01-31T17:30:01.714Z,7.85
2018-01-31T17:30:42.022Z,7.81
2018-01-31T17:31:23.657Z,7.81
2018-01-31T17:32:04.603Z,7.82
2018-01-31T17:32:46.708Z,7.92
2018-01-31T17:33:27.278Z,7.95
2018-01-31T17:34:08.361Z,7.96
2018-01-31T17:34:49.226Z,7.96
2018-01-31T17:35:29.787Z,7.84
2018-01-31T17:36:10.791Z,7.94
2018-01-31T17:36:51.321Z,7.99
2018-01-31T17:37:31.839Z,8.03
2018-01-31T17:38:12.623Z,8.14
2018-01-31T17:38:53.657Z,8.18
2018-01-31T17:39:34.108Z,8.17
2018-01-31T17:40:15.848Z,8.13
2018-01-31T17:40:56.787Z,8.21
2018-01-31T17:41:37.337Z,8.21
2018-01-31T17:42:18.389Z,8.29
2018-01-31T17:42:59.002Z,8.34
2018-01-31T17:43:39.433Z,8.29
2018-01-31T17:44:19.913Z,8.18
2018-01-31T17:45:00.384Z,8.32
2018-01-31T17:45:42.233Z,8.27
2018-01-31T17:46:22.979Z,8.42
2018-01-31T17:54:05.582Z,8.65
2018-01-31T17:54:50.383Z,8.63
2018-01-31T18:14:25.020Z,9.2
2018-01-31T18:15:06.911Z,9.13
2018-01-31T18:15:47.761Z,9.23
2018-01-31T18:16:28.568Z,9.2
2018-01-31T18:17:09.840Z,9.24
2018-01-31T18:17:54.211Z,9.08
2018-01-31T18:18:34.659Z,9.13
2018-01-31T18:20:38.176Z,9.15
2018-01-31T18:26:04.108Z,9.08
2018-01-31T18:26:45.881Z,9.13
2018-01-31T18:27:26.310Z,9.08
2018-01-31T18:28:09.197Z,9.04
2018-01-31T18:28:49.826Z,9.06
2018-01-31T18:29:30.950Z,9.1
2018-01-31T18:30:12.004Z,9.15
2018-01-31T18:30:52.272Z,9.2
2018-01-31T18:31:35.598Z,9.26
2018-01-31T18:32:17.668Z,9.27
2018-01-31T18:32:58.689Z,9.3
2018-01-31T18:33:38.795Z,9.35
2018-01-31T18:34:19.852Z,9.22
2018-01-31T18:35:01.454Z,9.27
2018-01-31T18:35:42.793Z,9.34
2018-01-31T18:36:23.523Z,9.34
2018-01-31T18:37:05.073Z,9.31
2018-01-31T18:37:45.846Z,9.35
2018-01-31T18:38:27.127Z,9.38
2018-01-31T18:39:07.454Z,9.35
2018-01-31T18:39:48.066Z,9.34
2018-01-31T18:41:47.089Z,9.3
2018-01-31T18:42:37.507Z,9.22
2018-01-31T19:22:18.644Z,9.7
2018-01-31T19:25:45.459Z,9.88
2018-01-31T19:26:49.978Z,9.77
2018-01-31T19:28:32.851Z,9.91
2018-01-31T19:29:56.251Z,9.67
2018-01-31T19:30:56.462Z,9.68
2018-01-31T19:33:18.349Z,9.56
2018-01-31T19:34:06.275Z,9.58
2018-01-31T19:37:41.934Z,10.02
2018-01-31T19:41:07.512Z,9.95
2018-01-31T19:42:59.829Z,9.91
2018-01-31T19:43:40.185Z,9.73
2018-01-31T19:44:20.606Z,9.89
2018-01-31T19:45:01.131Z,9.77
2018-01-31T19:45:42.408Z,9.77
2018-01-31T19:46:22.778Z,9.83
2018-01-31T19:47:03.307Z,9.77
2018-01-31T19:47:43.683Z,9.77
2018-01-31T19:48:24.171Z,9.65
2018-01-31T19:49:04.553Z,9.59
2018-01-31T19:49:45.027Z,9.56
2018-01-31T19:50:25.407Z,9.56
2018-01-31T19:51:05.768Z,9.53
2018-01-31T19:51:46.172Z,9.49
2018-01-31T19:52:26.953Z,9.4
2018-01-31T19:53:07.000Z,9.37
2018-01-31T19:53:47.381Z,9.34
2018-01-31T19:54:27.832Z,9.31
2018-01-31T19:55:08.142Z,9.34
2018-01-31T19:55:48.601Z,9.27
2018-01-31T19:56:29.102Z,9.2
2018-01-31T19:57:09.517Z,9.22
2018-01-31T19:57:49.902Z,9.2
2018-01-31T19:58:30.440Z,9.1
2018-01-31T19:59:10.815Z,9.1
2018-01-31T19:59:51.266Z,9.1
2018-01-31T20:00:31.744Z,9.03
2018-01-31T20:01:12.078Z,9.16
2018-01-31T20:01:52.759Z,9.19
2018-01-31T20:21:44.203Z,9.98
2018-01-31T20:22:31.079Z,10.06